createdAt,value
2019-03-11T00:01:41.182Z,99.80
2019-03-11T00:04:19.670Z,99.80
2019-03-11T00:06:49.568Z,99.80
2019-03-11T00:09:18.811Z,99.80
2019-03-11T00:11:48.078Z,99.80
2019-03-11T00:14:17.511Z,99.60
2019-03-11T00:16:47.032Z,99.30
2019-03-11T00:19:16.560Z,98.40
2019-03-11T00:21:45.715Z,98.50
2019-03-11T00:24:15.154Z,98.70
2019-03-11T00:26:44.333Z,98.40
2019-03-11T00:29:13.603Z,97.90
2019-03-11T00:31:42.871Z,97.90
2019-03-11T00:34:12.515Z,97.80
2019-03-11T00:36:41.731Z,97.50
2019-03-11T00:39:10.838Z,97.50
2019-03-11T00:41:40.051Z,97.60
2019-03-11T00:44:09.651Z,97.80
2019-03-11T00:46:38.849Z,98.20
2019-03-11T00:49:08.430Z,98.00
2019-03-11T00:51:37.557Z,98.40
2019-03-11T00:54:06.774Z,98.80
2019-03-11T00:56:36.027Z,99.20
2019-03-11T00:59:05.600Z,99.40
2019-03-11T01:01:34.716Z,98.90
2019-03-11T01:04:04.615Z,98.60
2019-03-11T01:06:33.819Z,98.60
2019-03-11T01:09:03.114Z,97.80
2019-03-11T01:11:32.356Z,97.70
2019-03-11T01:14:01.574Z,97.40
2019-03-11T01:16:30.723Z,96.80
2019-03-11T01:18:59.920Z,96.10
2019-03-11T01:21:29.091Z,96.30
2019-03-11T01:23:58.655Z,96.80
2019-03-11T01:26:27.903Z,97.20
2019-03-11T01:28:57.092Z,96.90
2019-03-11T01:31:26.502Z,97.30
2019-03-11T01:33:56.084Z,97.20
2019-03-11T01:36:25.246Z,97.40
2019-03-11T01:38:54.746Z,96.70
2019-03-11T01:41:23.886Z,95.70
2019-03-11T01:43:53.051Z,95.30
2019-03-11T01:46:22.275Z,95.10
2019-03-11T01:48:52.128Z,95.20
2019-03-11T01:51:21.617Z,94.30
2019-03-11T01:53:50.747Z,93.10
2019-03-11T01:56:20.339Z,92.20
2019-03-11T01:58:49.586Z,93.30
2019-03-11T02:01:18.730Z,92.40
2019-03-11T02:03:47.919Z,92.50
2019-03-11T02:06:17.043Z,91.30
2019-03-11T02:08:46.471Z,91.10
2019-03-11T02:11:15.648Z,90.60
2019-03-11T02:13:44.755Z,90.60
2019-03-11T02:16:14.021Z,90.90
2019-03-11T02:18:43.454Z,90.00
2019-03-11T02:21:12.671Z,89.40
2019-03-11T02:23:41.933Z,89.50
2019-03-11T02:26:11.171Z,90.00
2019-03-11T02:28:41.007Z,89.50
2019-03-11T02:31:10.198Z,89.90
2019-03-11T02:33:39.352Z,90.00
2019-03-11T02:36:08.869Z,90.70
2019-03-11T02:38:38.084Z,90.30
2019-03-11T02:41:07.269Z,90.40
2019-03-11T02:43:36.574Z,91.10
2019-03-11T02:46:05.749Z,90.60
2019-03-11T02:48:34.875Z,90.50
2019-03-11T02:51:04.287Z,90.70
2019-03-11T02:53:33.449Z,90.70
2019-03-11T02:56:02.700Z,90.60
2019-03-11T02:58:31.905Z,90.60
2019-03-11T03:01:20.566Z,90.60
2019-03-11T03:04:03.744Z,90.40
2019-03-11T03:06:33.860Z,90.50
2019-03-11T03:09:03.231Z,91.00
2019-03-11T03:11:32.663Z,91.20
2019-03-11T03:14:02.160Z,91.30
2019-03-11T03:16:31.383Z,90.80
2019-03-11T03:19:01.069Z,90.50
2019-03-11T03:21:30.592Z,90.80
2019-03-11T03:23:59.739Z,90.50
2019-03-11T03:26:29.209Z,90.30
2019-03-11T03:28:58.347Z,90.00
2019-03-11T03:31:27.786Z,91.50
2019-03-11T03:33:56.938Z,95.10
2019-03-11T03:36:26.450Z,98.40
2019-03-11T03:38:55.653Z,99.80
2019-03-11T03:41:24.833Z,99.80
2019-03-11T03:43:53.992Z,99.80
2019-03-11T03:46:23.210Z,99.80
2019-03-11T03:48:52.443Z,99.80
2019-03-11T03:51:21.783Z,99.80
2019-03-11T03:53:51.020Z,99.80
2019-03-11T03:56:20.413Z,99.80
2019-03-11T03:58:49.623Z,99.80
2019-03-11T04:01:19.090Z,99.80
2019-03-11T04:03:49.298Z,99.80
2019-03-11T04:06:18.893Z,99.80
2019-03-11T04:08:48.099Z,99.80
2019-03-11T04:11:17.304Z,99.80
2019-03-11T04:13:46.833Z,99.80
2019-03-11T04:16:16.437Z,99.80
2019-03-11T04:18:56.244Z,99.80
2019-03-11T04:21:25.716Z,99.80
2019-03-11T04:23:55.255Z,99.80
2019-03-11T04:26:29.350Z,99.80
2019-03-11T04:28:58.891Z,99.80
2019-03-11T04:31:28.060Z,99.80
2019-03-11T04:33:57.199Z,99.80
2019-03-11T04:36:26.454Z,99.80
2019-03-11T04:38:55.990Z,99.80
2019-03-11T04:41:25.182Z,99.80
2019-03-11T04:43:54.367Z,99.80
2019-03-11T04:46:24.004Z,99.80
2019-03-11T04:48:53.862Z,99.80
2019-03-11T04:51:23.065Z,99.80
2019-03-11T04:53:52.209Z,99.80
2019-03-11T04:56:21.721Z,99.80
2019-03-11T04:58:50.949Z,99.80
2019-03-11T05:01:20.478Z,99.80
2019-03-11T05:03:49.684Z,99.80
2019-03-11T05:06:19.085Z,99.80
2019-03-11T05:08:48.575Z,99.80
2019-03-11T05:11:18.132Z,99.80
2019-03-11T05:13:47.473Z,99.80
2019-03-11T05:16:16.734Z,99.80
2019-03-11T05:18:46.207Z,99.80
2019-03-11T05:21:15.464Z,99.80
2019-03-11T05:23:44.607Z,99.80
2019-03-11T05:26:13.851Z,99.80
2019-03-11T05:28:43.091Z,99.80
2019-03-11T05:31:12.255Z,99.80
2019-03-11T05:33:43.923Z,99.80
2019-03-11T05:36:13.831Z,99.80
2019-03-11T05:38:44.036Z,99.80
2019-03-11T05:41:14.123Z,99.80
2019-03-11T05:43:50.529Z,99.80
2019-03-11T05:46:19.677Z,99.80
2019-03-11T05:48:48.819Z,99.80
2019-03-11T05:51:18.341Z,99.80
2019-03-11T05:53:47.502Z,99.80
2019-03-11T05:56:16.725Z,99.80
2019-03-11T05:58:45.992Z,99.80
2019-03-11T06:01:15.252Z,99.80
2019-03-11T06:03:44.700Z,99.80
2019-03-11T06:06:14.291Z,99.80
2019-03-11T06:08:43.458Z,99.40
2019-03-11T06:11:12.768Z,97.90
2019-03-11T06:13:41.927Z,98.30
2019-03-11T06:16:11.998Z,99.10
2019-03-11T06:18:47.207Z,99.50
2019-03-11T06:21:28.318Z,98.70
2019-03-11T06:23:57.790Z,99.10
2019-03-11T06:26:29.166Z,98.30
2019-03-11T06:28:59.177Z,97.90
2019-03-11T06:31:28.482Z,97.90
2019-03-11T06:33:58.938Z,99.80
2019-03-11T06:36:28.239Z,99.80
2019-03-11T06:39:05.452Z,99.80
2019-03-11T06:41:28.252Z,99.80
2019-03-11T06:43:57.674Z,99.80
2019-03-11T06:46:26.820Z,99.80
2019-03-11T06:48:56.304Z,99.80
2019-03-11T06:51:25.879Z,99.80
2019-03-11T06:53:55.340Z,99.80
2019-03-11T06:56:24.548Z,99.80
2019-03-11T06:58:54.004Z,99.80
2019-03-11T07:01:23.200Z,99.80
2019-03-11T07:03:52.423Z,99.80
2019-03-11T07:06:21.767Z,99.80
2019-03-11T07:08:51.143Z,99.80
2019-03-11T07:11:20.334Z,99.80
2019-03-11T07:13:49.749Z,99.80
2019-03-11T07:16:19.183Z,99.80
2019-03-11T07:18:48.374Z,99.70
2019-03-11T07:21:18.440Z,99.30
2019-03-11T07:23:47.643Z,99.20
2019-03-11T07:26:16.791Z,98.60
2019-03-11T07:28:45.924Z,98.00
2019-03-11T07:31:15.058Z,97.60
2019-03-11T07:33:44.555Z,96.90
2019-03-11T07:36:13.793Z,97.80
2019-03-11T07:38:42.931Z,97.50
2019-03-11T07:41:12.764Z,97.30
2019-03-11T07:43:42.189Z,97.60
2019-03-11T07:46:11.420Z,97.10
2019-03-11T07:48:40.675Z,96.90
2019-03-11T07:51:09.929Z,95.90
2019-03-11T07:53:39.176Z,96.20
2019-03-11T07:56:08.419Z,96.30
2019-03-11T07:58:37.788Z,95.20
2019-03-11T08:01:06.968Z,95.20
2019-03-11T08:03:36.138Z,94.90
2019-03-11T08:06:05.268Z,94.20
2019-03-11T08:08:34.800Z,92.40
2019-03-11T08:11:04.578Z,91.80
2019-03-11T08:13:33.813Z,92.60
2019-03-11T08:16:03.450Z,90.70
2019-03-11T08:18:35.299Z,89.50
2019-03-11T08:21:03.877Z,89.00
2019-03-11T08:23:35.583Z,86.50
2019-03-11T08:26:03.946Z,87.90
2019-03-11T08:28:33.695Z,85.60
2019-03-11T08:31:02.903Z,85.10
2019-03-11T08:33:32.493Z,86.00
2019-03-11T08:36:01.934Z,85.30
2019-03-11T08:38:31.428Z,85.10
2019-03-11T08:41:00.847Z,85.40
2019-03-11T08:43:30.132Z,83.80
2019-03-11T08:45:59.404Z,84.00
2019-03-11T08:48:28.622Z,81.90
2019-03-11T08:50:58.473Z,80.10
2019-03-11T08:53:28.106Z,80.80
2019-03-11T08:55:57.502Z,79.10
2019-03-11T08:58:26.686Z,80.10
2019-03-11T09:00:56.086Z,82.10
2019-03-11T09:03:25.589Z,82.80
2019-03-11T09:05:55.129Z,84.10
2019-03-11T09:08:24.324Z,82.40
2019-03-11T09:10:53.470Z,81.90
2019-03-11T09:13:22.648Z,82.90
2019-03-11T09:15:52.944Z,84.10
2019-03-11T09:18:22.288Z,84.60
2019-03-11T09:20:51.531Z,84.40
2019-03-11T09:23:20.771Z,85.40
2019-03-11T09:25:54.364Z,86.20
2019-03-11T09:28:23.958Z,87.10
2019-03-11T09:30:53.193Z,87.60
2019-03-11T09:33:22.425Z,90.30
2019-03-11T09:35:51.878Z,91.30
2019-03-11T09:38:21.053Z,91.20
2019-03-11T09:40:52.152Z,91.80
2019-03-11T09:43:21.479Z,91.00
2019-03-11T09:45:50.956Z,90.80
2019-03-11T09:48:20.175Z,91.20
2019-03-11T09:50:49.676Z,91.20
2019-03-11T09:53:18.842Z,90.50
2019-03-11T09:55:47.956Z,88.20
2019-03-11T09:58:17.140Z,87.90
2019-03-11T10:00:46.872Z,87.00
2019-03-11T10:03:16.086Z,87.90
2019-03-11T10:05:45.616Z,88.70
2019-03-11T10:08:15.191Z,89.40
2019-03-11T10:10:44.727Z,90.20
2019-03-11T10:13:13.882Z,90.00
2019-03-11T10:15:43.360Z,90.80
2019-03-11T10:18:12.814Z,91.30
2019-03-11T10:20:42.337Z,90.90
2019-03-11T10:23:11.567Z,91.00
2019-03-11T10:25:41.035Z,91.50
2019-03-11T10:28:10.283Z,92.50
2019-03-11T10:30:39.701Z,90.90
2019-03-11T10:33:09.069Z,90.80
2019-03-11T10:35:38.223Z,89.60
2019-03-11T10:38:07.384Z,88.50
2019-03-11T10:40:36.517Z,87.70
2019-03-11T10:43:05.748Z,87.80
2019-03-11T10:45:34.986Z,85.80
2019-03-11T10:48:05.062Z,85.50
2019-03-11T10:50:34.832Z,85.80
2019-03-11T10:53:04.150Z,84.70
2019-03-11T10:55:33.347Z,84.50
2019-03-11T10:58:02.505Z,83.20
2019-03-11T11:00:32.716Z,83.70
2019-03-11T11:03:01.974Z,85.40
2019-03-11T11:05:31.467Z,85.40
2019-03-11T11:08:00.915Z,85.60
2019-03-11T11:10:30.122Z,85.10
2019-03-11T11:12:59.988Z,85.60
2019-03-11T11:15:29.182Z,85.00
2019-03-11T11:17:58.334Z,84.70
2019-03-11T11:20:27.636Z,85.00
2019-03-11T11:22:56.836Z,84.00
2019-03-11T11:25:26.112Z,83.60
2019-03-11T11:27:55.439Z,83.80
2019-03-11T11:30:24.740Z,84.10
2019-03-11T11:32:54.075Z,84.80
2019-03-11T11:35:24.522Z,83.60
2019-03-11T11:37:53.897Z,83.50
2019-03-11T11:40:23.662Z,84.00
2019-03-11T11:42:52.916Z,84.30
2019-03-11T11:45:22.685Z,85.50
2019-03-11T11:47:52.115Z,85.50
2019-03-11T11:50:21.890Z,85.40
2019-03-11T11:52:51.330Z,85.80
2019-03-11T11:55:21.628Z,84.70
2019-03-11T11:57:51.844Z,84.90
2019-03-11T12:00:23.893Z,85.30
2019-03-11T12:02:53.411Z,83.50
2019-03-11T12:05:23.350Z,83.90
2019-03-11T12:07:53.060Z,83.10
2019-03-11T12:10:23.236Z,82.50
2019-03-11T12:12:52.691Z,82.70
2019-03-11T12:15:22.587Z,83.10
2019-03-11T12:17:52.003Z,83.30
2019-03-11T12:20:22.729Z,83.00
2019-03-11T12:22:52.429Z,83.40
2019-03-11T12:25:21.611Z,82.00
2019-03-11T12:27:54.047Z,82.30
2019-03-11T12:30:24.156Z,82.20
2019-03-11T12:32:54.745Z,82.40
2019-03-11T12:35:24.015Z,80.40
2019-03-11T12:37:53.351Z,80.70
2019-03-11T12:40:22.631Z,80.60
2019-03-11T12:42:51.815Z,80.10
2019-03-11T12:45:21.623Z,79.80
2019-03-11T12:47:51.346Z,80.20
2019-03-11T12:50:21.481Z,79.50
2019-03-11T12:52:50.919Z,79.30
2019-03-11T12:55:22.527Z,79.60
2019-03-11T12:57:51.928Z,80.60
2019-03-11T13:00:21.305Z,79.70
2019-03-11T13:02:51.466Z,80.40
2019-03-11T13:05:21.362Z,80.70
2019-03-11T13:07:51.029Z,80.60
2019-03-11T13:10:21.020Z,81.10
2019-03-11T13:12:50.477Z,80.00
2019-03-11T13:15:19.803Z,80.90
2019-03-11T13:17:49.120Z,80.00
2019-03-11T13:20:24.872Z,79.80
2019-03-11T13:22:54.081Z,79.50
2019-03-11T13:25:23.454Z,78.60
2019-03-11T13:27:52.712Z,80.10
2019-03-11T13:30:22.320Z,79.20
2019-03-11T13:32:51.872Z,79.40
2019-03-11T13:35:22.045Z,79.80
2019-03-11T13:37:51.227Z,82.50
2019-03-11T13:40:21.228Z,83.30
2019-03-11T13:42:50.656Z,83.90
2019-03-11T13:45:20.723Z,85.20
2019-03-11T13:47:54.713Z,84.60
2019-03-11T13:50:24.602Z,85.00
2019-03-11T13:52:53.804Z,87.90
2019-03-11T13:55:22.903Z,90.40
2019-03-11T13:57:52.074Z,89.30
2019-03-11T14:00:21.268Z,91.80
2019-03-11T14:02:50.464Z,92.60
2019-03-11T14:05:22.461Z,90.90
2019-03-11T14:07:51.921Z,90.50
2019-03-11T14:10:21.180Z,89.40
2019-03-11T14:12:50.340Z,88.40
2019-03-11T14:15:25.033Z,87.90
2019-03-11T14:17:54.844Z,89.70
2019-03-11T14:20:24.327Z,90.20
2019-03-11T14:22:53.785Z,85.90
2019-03-11T14:25:22.918Z,85.10
2019-03-11T14:27:52.358Z,83.50
2019-03-11T14:30:23.853Z,85.10
2019-03-11T14:32:53.167Z,86.20
2019-03-11T14:35:22.758Z,85.60
2019-03-11T14:37:51.940Z,84.90
2019-03-11T14:40:21.499Z,79.70
2019-03-11T14:42:50.655Z,78.70
2019-03-11T14:45:19.856Z,79.20
2019-03-11T14:47:49.336Z,80.30
2019-03-11T14:50:18.991Z,76.90
2019-03-11T14:52:48.260Z,77.50
2019-03-11T14:55:18.061Z,78.30
2019-03-11T14:57:48.094Z,78.90
2019-03-11T15:00:18.549Z,80.00
2019-03-11T15:02:48.526Z,80.60
2019-03-11T15:05:18.496Z,81.40
2019-03-11T15:07:48.178Z,82.10
2019-03-11T15:10:18.048Z,81.60
2019-03-11T15:12:47.641Z,84.50
2019-03-11T15:15:17.516Z,90.10
2019-03-11T15:17:46.764Z,94.30
2019-03-11T15:20:16.398Z,98.90
2019-03-11T15:22:45.646Z,96.90
2019-03-11T15:25:15.875Z,88.70
2019-03-11T15:27:45.203Z,84.60
2019-03-11T15:30:15.918Z,80.00
2019-03-11T15:32:45.309Z,79.40
2019-03-11T15:35:14.655Z,78.90
2019-03-11T15:37:43.925Z,77.00
2019-03-11T15:40:13.471Z,76.50
2019-03-11T15:42:43.010Z,78.60
2019-03-11T15:45:13.754Z,78.30
2019-03-11T15:47:42.954Z,81.00
2019-03-11T15:50:14.454Z,81.70
2019-03-11T15:52:43.695Z,84.60
2019-03-11T15:55:13.903Z,86.60
2019-03-11T15:57:43.535Z,87.70
2019-03-11T16:00:15.661Z,85.60
2019-03-11T16:02:44.831Z,85.10
2019-03-11T16:05:14.615Z,83.50
2019-03-11T16:07:44.463Z,83.30
2019-03-11T16:10:17.600Z,84.00
2019-03-11T16:12:46.811Z,83.70
2019-03-11T16:15:16.700Z,83.30
2019-03-11T16:17:45.953Z,82.90
2019-03-11T16:20:16.931Z,80.00
2019-03-11T16:22:46.190Z,76.00
2019-03-11T16:25:15.896Z,71.80
2019-03-11T16:27:45.159Z,72.30
2019-03-11T16:30:17.101Z,69.90
2019-03-11T16:32:58.278Z,67.50
2019-03-11T16:35:19.695Z,64.20
2019-03-11T16:37:48.881Z,64.10
2019-03-11T16:40:18.233Z,64.40
2019-03-11T16:42:47.384Z,67.30
2019-03-11T16:45:17.668Z,69.10
2019-03-11T16:47:46.946Z,71.50
2019-03-11T16:50:16.844Z,73.80
2019-03-11T16:52:46.037Z,75.40
2019-03-11T16:55:16.439Z,77.30
2019-03-11T16:57:45.627Z,78.20
2019-03-11T17:00:17.535Z,78.00
2019-03-11T17:02:47.325Z,78.90
2019-03-11T17:05:16.581Z,78.10
2019-03-11T17:07:45.788Z,79.90
2019-03-11T17:10:15.294Z,78.70
2019-03-11T17:12:44.513Z,79.40
2019-03-11T17:15:13.768Z,78.90
2019-03-11T17:17:43.307Z,79.00
2019-03-11T17:20:12.967Z,78.20
2019-03-11T17:22:42.140Z,79.20
2019-03-11T17:25:11.583Z,79.00
2019-03-11T17:27:40.779Z,79.40
2019-03-11T17:30:12.174Z,80.30
2019-03-11T17:32:41.651Z,80.30
2019-03-11T17:35:11.196Z,79.90
2019-03-11T17:37:40.478Z,80.60
2019-03-11T17:40:11.241Z,81.80
2019-03-11T17:42:40.479Z,82.30
2019-03-11T17:45:10.027Z,81.90
2019-03-11T17:47:39.221Z,82.40
2019-03-11T17:50:10.583Z,82.70
2019-03-11T17:52:39.920Z,81.10
2019-03-11T17:55:09.363Z,82.20
2019-03-11T17:57:38.601Z,82.50
2019-03-11T18:00:12.062Z,81.70
2019-03-11T18:02:41.244Z,81.40
2019-03-11T18:05:11.037Z,81.70
2019-03-11T18:07:40.278Z,82.10
2019-03-11T18:10:10.195Z,81.00
2019-03-11T18:12:39.406Z,80.50
2019-03-11T18:15:09.475Z,81.00
2019-03-11T18:17:38.900Z,80.50
2019-03-11T18:20:10.018Z,80.70
2019-03-11T18:22:39.288Z,80.30
2019-03-11T18:25:10.315Z,80.30
2019-03-11T18:27:39.551Z,80.60
2019-03-11T18:30:11.500Z,80.40
2019-03-11T18:32:40.730Z,80.60
2019-03-11T18:35:09.964Z,80.80
2019-03-11T18:37:39.241Z,80.90
2019-03-11T18:40:10.163Z,81.30
2019-03-11T18:42:39.963Z,80.20
2019-03-11T18:45:09.599Z,80.10
2019-03-11T18:47:38.929Z,80.20
2019-03-11T18:50:10.078Z,79.50
2019-03-11T18:52:39.882Z,79.80
2019-03-11T18:55:09.464Z,80.70
2019-03-11T18:57:40.825Z,80.40
2019-03-11T19:00:12.211Z,80.60
2019-03-11T19:02:42.233Z,80.20
2019-03-11T19:05:12.640Z,79.80
2019-03-11T19:07:41.911Z,79.90
2019-03-11T19:10:13.745Z,79.90
2019-03-11T19:12:43.026Z,80.70
2019-03-11T19:15:14.414Z,81.40
2019-03-11T19:17:44.169Z,82.10
2019-03-11T19:20:15.512Z,83.20
2019-03-11T19:22:44.795Z,83.90
2019-03-11T19:25:15.127Z,84.90
2019-03-11T19:27:45.026Z,85.50
2019-03-11T19:30:19.374Z,86.30
2019-03-11T19:32:49.268Z,86.70
2019-03-11T19:35:21.908Z,86.70
2019-03-11T19:37:51.174Z,86.80
2019-03-11T19:40:20.544Z,86.70
2019-03-11T19:42:49.935Z,86.60
2019-03-11T19:45:22.377Z,86.00
2019-03-11T19:47:51.788Z,86.30
2019-03-11T19:50:21.668Z,86.30
2019-03-11T19:52:58.292Z,85.40
2019-03-11T19:55:22.097Z,85.40
2019-03-11T19:57:51.590Z,85.20
2019-03-11T20:00:21.193Z,85.70
2019-03-11T20:02:50.907Z,85.60
2019-03-11T20:05:22.039Z,85.90
2019-03-11T20:08:01.495Z,86.00
2019-03-11T20:10:40.510Z,86.30
2019-03-11T20:13:14.549Z,86.50
2019-03-11T20:15:44.037Z,86.20
2019-03-11T20:18:13.600Z,86.00
2019-03-11T20:20:42.997Z,86.50
2019-03-11T20:23:12.381Z,86.10
2019-03-11T20:25:41.752Z,86.30
2019-03-11T20:28:11.027Z,86.30
2019-03-11T20:30:40.443Z,86.20
2019-03-11T20:33:09.885Z,86.10
2019-03-11T20:35:40.275Z,86.70
2019-03-11T20:38:09.658Z,87.00
2019-03-11T20:40:40.350Z,86.70
2019-03-11T20:43:11.086Z,86.90
2019-03-11T20:45:40.732Z,86.80
2019-03-11T20:48:19.185Z,86.70
2019-03-11T20:50:51.130Z,86.70
2019-03-11T20:53:24.629Z,86.90
2019-03-11T20:55:56.582Z,87.50
2019-03-11T20:58:26.038Z,87.80
2019-03-11T21:00:55.414Z,87.90
2019-03-11T21:03:24.774Z,88.20
2019-03-11T21:05:54.477Z,88.50
2019-03-11T21:08:23.868Z,88.90
2019-03-11T21:10:53.216Z,89.00
2019-03-11T21:13:22.635Z,89.50
2019-03-11T21:15:52.517Z,90.10
2019-03-11T21:18:21.881Z,90.20
2019-03-11T21:21:03.678Z,90.20
2019-03-11T21:23:25.950Z,90.50
2019-03-11T21:25:56.553Z,90.20
2019-03-11T21:28:25.083Z,90.70
2019-03-11T21:30:56.924Z,90.70
2019-03-11T21:33:26.346Z,90.30
2019-03-11T21:35:55.650Z,91.00
2019-03-11T21:38:25.162Z,90.90
2019-03-11T21:40:57.319Z,91.30
2019-03-11T21:43:26.597Z,90.90
2019-03-11T21:45:57.878Z,91.20
2019-03-11T21:48:29.095Z,91.60
2019-03-11T21:50:59.802Z,92.10
2019-03-11T21:53:29.412Z,92.10
2019-03-11T21:56:00.069Z,92.50
2019-03-11T21:58:31.360Z,92.60
2019-03-11T22:01:00.674Z,93.00
2019-03-11T22:03:29.899Z,93.30
2019-03-11T22:05:59.325Z,93.10
2019-03-11T22:08:28.539Z,93.20
2019-03-11T22:10:58.141Z,93.10
2019-03-11T22:13:27.393Z,93.10
2019-03-11T22:15:56.554Z,93.00
2019-03-11T22:18:25.691Z,92.80
2019-03-11T22:20:54.902Z,92.50
2019-03-11T22:23:27.096Z,92.50
2019-03-11T22:25:56.600Z,92.80
2019-03-11T22:28:25.895Z,92.80
2019-03-11T22:30:55.159Z,92.60
2019-03-11T22:33:24.408Z,92.70
2019-03-11T22:35:54.365Z,92.70
2019-03-11T22:38:23.533Z,92.60
2019-03-11T22:40:52.792Z,91.70
2019-03-11T22:43:22.269Z,91.10
2019-03-11T22:45:51.742Z,91.00
2019-03-11T22:48:21.979Z,91.20
2019-03-11T22:50:51.139Z,90.90
2019-03-11T22:53:21.224Z,90.40
2019-03-11T22:55:50.943Z,90.10
2019-03-11T22:58:20.236Z,90.10
2019-03-11T23:01:00.507Z,90.20
2019-03-11T23:03:30.208Z,90.30
2019-03-11T23:05:59.765Z,90.60
2019-03-11T23:08:29.303Z,90.90
2019-03-11T23:10:58.531Z,91.00
2019-03-11T23:13:28.319Z,90.20
2019-03-11T23:15:58.425Z,90.10
2019-03-11T23:18:27.637Z,89.60
2019-03-11T23:20:57.660Z,89.60
2019-03-11T23:23:26.884Z,90.00
2019-03-11T23:25:56.552Z,89.70
2019-03-11T23:28:26.180Z,89.80
2019-03-11T23:30:55.331Z,89.70
2019-03-11T23:33:25.746Z,89.70
2019-03-11T23:35:55.404Z,89.90
2019-03-11T23:38:24.567Z,89.90
2019-03-11T23:40:56.016Z,89.80
2019-03-11T23:43:25.346Z,89.90
2019-03-11T23:45:54.526Z,90.60
2019-03-11T23:48:23.697Z,91.20
2019-03-11T23:50:52.928Z,90.70
2019-03-11T23:53:22.437Z,89.90
2019-03-11T23:55:51.620Z,89.90
2019-03-11T23:58:20.815Z,89.60
